createdAt,value
2018-03-15T00:00:44.355Z,6.90
2018-03-15T00:01:44.296Z,7.30
2018-03-15T00:02:44.234Z,6.90
2018-03-15T00:03:44.174Z,7.00
2018-03-15T00:04:44.113Z,7.10
2018-03-15T00:05:44.053Z,7.00
2018-03-15T00:06:43.994Z,7.20
2018-03-15T00:07:43.932Z,6.80
2018-03-15T00:08:43.873Z,7.00
2018-03-15T00:09:43.811Z,7.00
2018-03-15T00:10:43.753Z,7.10
2018-03-15T00:11:43.693Z,7.00
2018-03-15T00:12:43.631Z,7.30
2018-03-15T00:13:43.571Z,7.20
2018-03-15T00:14:43.516Z,7.50
2018-03-15T00:15:43.452Z,7.30
2018-03-15T00:16:43.390Z,6.80
2018-03-15T00:17:43.329Z,7.30
2018-03-15T00:18:43.270Z,6.60
2018-03-15T00:19:43.209Z,6.70
2018-03-15T00:20:43.151Z,6.80
2018-03-15T00:21:43.088Z,6.80
2018-03-15T00:22:43.028Z,7.20
2018-03-15T00:23:42.968Z,7.40
2018-03-15T00:24:42.907Z,7.10
2018-03-15T00:25:42.845Z,7.50
2018-03-15T00:26:42.786Z,7.20
2018-03-15T00:27:42.725Z,7.60
2018-03-15T00:28:42.664Z,7.20
2018-03-15T00:29:42.609Z,7.60
2018-03-15T00:30:42.543Z,7.60
2018-03-15T00:31:42.484Z,7.80
2018-03-15T00:32:42.423Z,7.60
2018-03-15T00:33:42.362Z,8.30
2018-03-15T00:34:42.302Z,7.60
2018-03-15T00:35:42.245Z,7.80
2018-03-15T00:36:42.180Z,7.80
2018-03-15T00:37:42.121Z,7.30
2018-03-15T00:38:42.059Z,7.60
2018-03-15T00:39:42.020Z,7.90
2018-03-15T00:40:41.936Z,8.20
2018-03-15T00:41:41.880Z,7.60
2018-03-15T00:42:41.818Z,7.40
2018-03-15T00:43:41.757Z,7.50
2018-03-15T00:44:41.697Z,8.10
2018-03-15T00:45:41.642Z,7.50
2018-03-15T00:46:41.575Z,8.20
2018-03-15T00:47:41.520Z,7.80
2018-03-15T00:48:41.452Z,8.00
2018-03-15T00:49:41.396Z,7.80
2018-03-15T00:50:41.332Z,8.10
2018-03-15T00:51:41.313Z,8.30
2018-03-15T00:52:41.212Z,8.00
2018-03-15T00:53:41.150Z,7.70
2018-03-15T00:54:41.090Z,8.10
2018-03-15T00:55:41.030Z,7.70
2018-03-15T00:56:40.969Z,8.30
2018-03-15T00:57:40.909Z,8.40
2018-03-15T00:58:40.850Z,8.70
2018-03-15T00:59:40.788Z,8.50
2018-03-15T01:00:40.725Z,8.00
2018-03-15T01:01:40.664Z,8.50
2018-03-15T01:02:40.607Z,8.20
2018-03-15T01:03:40.546Z,8.60
2018-03-15T01:04:40.486Z,8.70
2018-03-15T01:05:40.424Z,8.30
2018-03-15T01:06:40.385Z,8.80
2018-03-15T01:07:40.306Z,8.50
2018-03-15T01:08:40.244Z,8.90
2018-03-15T01:09:40.183Z,8.30
2018-03-15T01:10:40.120Z,8.50
2018-03-15T01:11:40.059Z,8.10
2018-03-15T01:12:40.006Z,8.80
2018-03-15T01:13:39.937Z,8.60
2018-03-15T01:14:39.894Z,8.90
2018-03-15T01:15:39.818Z,8.70
2018-03-15T01:16:39.756Z,8.70
2018-03-15T01:17:39.696Z,8.90
2018-03-15T01:18:39.635Z,8.80
2018-03-15T01:19:39.576Z,8.30
2018-03-15T01:20:39.515Z,8.60
2018-03-15T01:21:39.453Z,8.80
2018-03-15T01:22:39.393Z,9.30
2018-03-15T01:23:39.333Z,8.80
2018-03-15T01:24:39.271Z,9.00
2018-03-15T01:25:39.213Z,8.90
2018-03-15T01:26:39.151Z,8.50
2018-03-15T01:27:39.092Z,9.00
2018-03-15T01:28:39.031Z,9.30
2018-03-15T01:29:38.970Z,9.00
2018-03-15T01:30:38.908Z,9.50
2018-03-15T01:31:38.897Z,9.40
2018-03-15T01:32:38.788Z,9.40
2018-03-15T01:33:38.739Z,9.60
2018-03-15T01:34:38.667Z,9.40
2018-03-15T01:35:38.607Z,9.00
2018-03-15T01:36:38.547Z,9.00
2018-03-15T01:37:38.486Z,9.80
2018-03-15T01:38:38.431Z,9.10
2018-03-15T01:39:38.364Z,9.40
2018-03-15T01:40:38.305Z,9.20
2018-03-15T01:41:38.243Z,9.60
2018-03-15T01:42:38.183Z,9.40
2018-03-15T01:43:38.122Z,8.70
2018-03-15T01:44:38.065Z,9.20
2018-03-15T01:45:38.000Z,9.80
2018-03-15T01:46:37.941Z,9.20
2018-03-15T01:47:37.884Z,9.20
2018-03-15T01:48:37.822Z,9.70
2018-03-15T01:49:37.759Z,9.30
2018-03-15T01:50:37.700Z,9.50
2018-03-15T01:51:37.638Z,9.70
2018-03-15T01:52:37.578Z,10.20
2018-03-15T01:53:37.532Z,10.10
2018-03-15T01:54:37.454Z,9.60
2018-03-15T01:55:37.395Z,9.70
2018-03-15T01:56:37.333Z,9.40
2018-03-15T01:57:37.273Z,9.60
2018-03-15T01:58:37.212Z,10.00
2018-03-15T01:59:37.153Z,9.80
2018-03-15T02:00:37.096Z,9.70
2018-03-15T02:01:37.029Z,10.00
2018-03-15T02:02:36.970Z,10.30
2018-03-15T02:03:36.912Z,9.90
2018-03-15T02:04:36.847Z,9.90
2018-03-15T02:05:36.789Z,10.00
2018-03-15T02:06:36.726Z,10.40
2018-03-15T02:07:36.666Z,10.10
2018-03-15T02:08:36.604Z,10.40
2018-03-15T02:09:36.544Z,9.30
2018-03-15T02:10:36.484Z,10.30
2018-03-15T02:11:36.422Z,10.50
2018-03-15T02:12:36.361Z,11.00
2018-03-15T02:13:36.301Z,10.80
2018-03-15T02:14:36.241Z,10.50
2018-03-15T02:15:36.181Z,10.70
2018-03-15T02:16:36.119Z,11.10
2018-03-15T02:17:36.090Z,10.40
2018-03-15T02:18:36.002Z,10.20
2018-03-15T02:19:35.939Z,10.70
2018-03-15T02:20:35.876Z,10.90
2018-03-15T02:21:35.816Z,10.20
2018-03-15T02:22:35.755Z,11.00
2018-03-15T02:23:35.694Z,10.40
2018-03-15T02:24:35.635Z,11.30
2018-03-15T02:25:35.573Z,11.10
2018-03-15T02:26:35.512Z,11.30
2018-03-15T02:27:35.454Z,11.10
2018-03-15T02:28:35.392Z,10.70
2018-03-15T02:29:35.329Z,10.70
2018-03-15T02:30:35.274Z,10.40
2018-03-15T02:31:35.209Z,11.00
2018-03-15T02:32:35.145Z,10.50
2018-03-15T02:33:35.086Z,10.90
2018-03-15T02:34:35.023Z,11.10
2018-03-15T02:35:34.967Z,11.40
2018-03-15T02:36:34.906Z,11.60
2018-03-15T02:37:34.843Z,12.10
2018-03-15T02:38:34.781Z,11.30
2018-03-15T02:39:34.722Z,11.00
2018-03-15T02:40:34.661Z,11.00
2018-03-15T02:41:34.600Z,10.80
2018-03-15T02:42:34.541Z,11.70
2018-03-15T02:43:34.484Z,11.40
2018-03-15T02:44:34.418Z,11.50
2018-03-15T02:45:34.355Z,12.90
2018-03-15T02:46:34.296Z,11.20
2018-03-15T02:47:34.240Z,11.50
2018-03-15T02:48:34.173Z,12.00
2018-03-15T02:49:34.116Z,12.00
2018-03-15T02:50:34.051Z,12.10
2018-03-15T02:51:33.991Z,12.00
2018-03-15T02:52:33.935Z,12.60
2018-03-15T02:53:33.871Z,12.50
2018-03-15T02:54:33.809Z,13.20
2018-03-15T02:55:33.750Z,12.90
2018-03-15T02:56:33.692Z,13.20
2018-03-15T02:57:33.628Z,13.00
2018-03-15T02:58:33.564Z,13.70
2018-03-15T02:59:33.503Z,13.50
2018-03-15T03:00:33.444Z,13.80
2018-03-15T03:01:33.382Z,13.30
2018-03-15T03:02:33.319Z,14.10
2018-03-15T03:03:33.259Z,13.60
2018-03-15T03:04:33.199Z,13.90
2018-03-15T03:05:33.138Z,13.50
2018-03-15T03:06:33.076Z,13.80
2018-03-15T03:07:33.019Z,13.80
2018-03-15T03:08:32.956Z,14.00
2018-03-15T03:09:32.894Z,14.10
2018-03-15T03:10:32.832Z,13.90
2018-03-15T03:11:32.771Z,13.50
2018-03-15T03:12:32.709Z,14.10
2018-03-15T03:13:32.649Z,14.00
2018-03-15T03:14:32.587Z,14.80
2018-03-15T03:15:32.526Z,14.80
2018-03-15T03:16:32.466Z,14.40
2018-03-15T03:17:32.404Z,13.80
2018-03-15T03:18:32.343Z,14.10
2018-03-15T03:19:32.285Z,14.30
2018-03-15T03:20:32.221Z,14.80
2018-03-15T03:21:32.161Z,14.70
2018-03-15T03:22:32.102Z,14.50
2018-03-15T03:23:32.039Z,14.70
2018-03-15T03:24:31.978Z,15.40
2018-03-15T03:25:31.923Z,14.70
2018-03-15T03:26:31.855Z,14.80
2018-03-15T03:27:31.796Z,15.00
2018-03-15T03:28:31.736Z,15.10
2018-03-15T03:29:31.672Z,14.70
2018-03-15T03:30:31.612Z,14.80
2018-03-15T03:31:31.552Z,15.00
2018-03-15T03:32:31.490Z,15.50
2018-03-15T03:33:31.426Z,15.40
2018-03-15T03:34:31.366Z,16.00
2018-03-15T03:35:31.303Z,15.20
2018-03-15T03:36:31.243Z,15.50
2018-03-15T03:37:31.182Z,14.60
2018-03-15T03:38:31.121Z,16.00
2018-03-15T03:39:31.061Z,15.70
2018-03-15T03:40:30.999Z,15.30
2018-03-15T03:41:30.943Z,14.60
2018-03-15T03:42:30.878Z,15.60
2018-03-15T03:43:30.817Z,15.20
2018-03-15T03:44:30.755Z,15.60
2018-03-15T03:45:30.693Z,15.20
2018-03-15T03:46:30.630Z,16.00
2018-03-15T03:47:30.571Z,15.00
2018-03-15T03:48:30.509Z,15.70
2018-03-15T03:49:30.450Z,15.30
2018-03-15T03:50:30.386Z,15.20
2018-03-15T03:51:30.326Z,15.00
2018-03-15T03:52:30.264Z,15.30
2018-03-15T03:53:30.203Z,14.70
2018-03-15T03:54:30.143Z,14.90
2018-03-15T03:55:30.081Z,15.00
2018-03-15T03:56:30.023Z,15.20
2018-03-15T03:57:29.958Z,15.60
2018-03-15T03:58:29.899Z,16.10
2018-03-15T03:59:29.836Z,16.00
2018-03-15T04:00:29.778Z,15.20
2018-03-15T04:01:29.713Z,15.60
2018-03-15T04:02:29.653Z,15.50
2018-03-15T04:03:29.591Z,15.00
2018-03-15T04:04:29.537Z,15.20
2018-03-15T04:05:29.470Z,15.90
2018-03-15T04:06:29.407Z,15.80
2018-03-15T04:07:29.349Z,15.80
2018-03-15T04:08:29.285Z,16.00
2018-03-15T04:09:29.224Z,16.10
2018-03-15T04:10:29.165Z,15.50
2018-03-15T04:11:29.100Z,15.90
2018-03-15T04:12:29.042Z,15.10
2018-03-15T04:13:28.980Z,15.80
2018-03-15T04:14:28.918Z,15.30
2018-03-15T04:15:28.857Z,16.20
2018-03-15T04:16:28.797Z,16.40
2018-03-15T04:17:28.735Z,16.60
2018-03-15T04:18:28.672Z,16.20
2018-03-15T04:19:28.613Z,15.80
2018-03-15T04:20:28.549Z,16.30
2018-03-15T04:21:28.490Z,16.40
2018-03-15T04:22:28.429Z,17.00
2018-03-15T04:23:28.368Z,16.30
2018-03-15T04:24:28.306Z,17.10
2018-03-15T04:25:28.244Z,17.80
2018-03-15T04:26:28.185Z,18.30
2018-03-15T04:27:28.123Z,17.00
2018-03-15T04:28:28.063Z,17.50
2018-03-15T04:29:28.001Z,17.10
2018-03-15T04:30:27.938Z,17.40
2018-03-15T04:31:27.879Z,19.20
2018-03-15T04:32:27.817Z,18.30
2018-03-15T04:33:27.755Z,18.00
2018-03-15T04:34:27.695Z,17.60
2018-03-15T04:35:27.633Z,17.90
2018-03-15T04:36:27.572Z,19.00
2018-03-15T04:37:27.510Z,17.30
2018-03-15T04:38:27.448Z,18.20
2018-03-15T04:39:27.386Z,17.40
2018-03-15T04:40:27.326Z,18.10
2018-03-15T04:41:27.267Z,18.50
2018-03-15T04:42:27.204Z,17.10
2018-03-15T04:43:27.142Z,18.40
2018-03-15T04:44:27.079Z,18.50
2018-03-15T04:45:27.022Z,17.90
2018-03-15T04:46:26.958Z,18.60
2018-03-15T04:47:26.898Z,19.40
2018-03-15T04:48:26.837Z,19.80
2018-03-15T04:49:26.774Z,18.80
2018-03-15T04:50:26.714Z,19.30
2018-03-15T04:51:26.650Z,19.00
2018-03-15T04:52:26.590Z,20.10
2018-03-15T04:53:26.529Z,19.70
2018-03-15T04:54:26.483Z,20.60
2018-03-15T04:55:26.406Z,20.80
2018-03-15T04:56:26.344Z,20.00
2018-03-15T04:57:26.282Z,20.40
2018-03-15T04:58:26.224Z,20.40
2018-03-15T04:59:26.178Z,20.70
2018-03-15T05:00:26.098Z,20.00
2018-03-15T05:01:26.040Z,20.00
2018-03-15T05:02:25.981Z,19.80
2018-03-15T05:03:25.914Z,19.60
2018-03-15T05:04:25.855Z,21.30
2018-03-15T05:05:25.796Z,20.50
2018-03-15T05:06:25.731Z,20.00
2018-03-15T05:07:25.678Z,20.40
2018-03-15T05:08:25.607Z,20.90
2018-03-15T05:09:25.562Z,21.40
2018-03-15T05:10:25.487Z,20.50
2018-03-15T05:11:25.425Z,20.60
2018-03-15T05:12:25.360Z,21.00
2018-03-15T05:13:25.302Z,20.90
2018-03-15T05:14:25.239Z,20.60
2018-03-15T05:15:25.184Z,20.80
2018-03-15T05:16:25.116Z,19.80
2018-03-15T05:17:25.058Z,19.30
2018-03-15T05:18:24.993Z,20.00
2018-03-15T05:19:24.933Z,19.30
2018-03-15T05:20:24.870Z,19.40
2018-03-15T05:21:24.811Z,19.70
2018-03-15T05:22:24.748Z,19.60
2018-03-15T05:23:24.687Z,20.70
2018-03-15T05:24:24.624Z,18.90
2018-03-15T05:25:24.563Z,20.00
2018-03-15T05:26:24.504Z,19.80
2018-03-15T05:27:24.441Z,19.00
2018-03-15T05:28:24.407Z,20.20
2018-03-15T05:29:24.320Z,19.20
2018-03-15T05:30:24.263Z,19.80
2018-03-15T05:31:24.199Z,19.70
2018-03-15T05:32:24.136Z,19.90
2018-03-15T05:33:24.070Z,19.30
2018-03-15T05:34:24.013Z,19.60
2018-03-15T05:35:23.952Z,19.50
2018-03-15T05:36:23.886Z,20.00
2018-03-15T05:37:23.833Z,19.60
2018-03-15T05:38:24.743Z,20.00
2018-03-15T05:39:23.707Z,20.20
2018-03-15T05:40:23.642Z,19.10
2018-03-15T05:41:23.597Z,19.10
2018-03-15T05:42:23.521Z,19.30
2018-03-15T05:43:23.461Z,19.30
2018-03-15T05:44:23.401Z,19.80
2018-03-15T05:45:23.336Z,19.60
2018-03-15T05:46:23.274Z,19.30
2018-03-15T05:47:23.215Z,19.90
2018-03-15T05:48:23.162Z,20.00
2018-03-15T05:49:23.086Z,20.10
2018-03-15T05:50:23.036Z,19.40
2018-03-15T05:51:23.019Z,20.40
2018-03-15T05:52:22.907Z,20.30
2018-03-15T05:53:22.846Z,20.40
2018-03-15T05:54:22.786Z,19.90
2018-03-15T05:55:22.725Z,20.60
2018-03-15T05:56:22.662Z,19.90
2018-03-15T05:57:22.601Z,20.00
2018-03-15T05:58:22.539Z,20.00
2018-03-15T05:59:22.481Z,19.00
2018-03-15T06:00:22.417Z,21.00
2018-03-15T06:01:22.356Z,21.00
2018-03-15T06:02:22.296Z,19.30
2018-03-15T06:03:22.241Z,20.50
2018-03-15T06:04:22.175Z,20.90
2018-03-15T06:05:22.112Z,21.80
2018-03-15T06:06:22.049Z,20.70
2018-03-15T06:07:21.988Z,20.50
2018-03-15T06:08:21.926Z,21.40
2018-03-15T06:09:21.865Z,21.30
2018-03-15T06:10:21.804Z,21.50
2018-03-15T06:11:21.746Z,20.60
2018-03-15T06:12:21.683Z,21.40
2018-03-15T06:13:21.622Z,21.00
2018-03-15T06:14:21.560Z,20.90
2018-03-15T06:15:21.501Z,22.10
2018-03-15T06:16:21.437Z,21.40
2018-03-15T06:17:21.375Z,21.10
2018-03-15T06:18:21.320Z,21.30
2018-03-15T06:19:21.252Z,22.00
2018-03-15T06:20:21.191Z,21.50
2018-03-15T06:21:21.131Z,22.70
2018-03-15T06:22:21.070Z,21.50
2018-03-15T06:23:21.010Z,22.10
2018-03-15T06:24:20.945Z,21.30
2018-03-15T06:25:20.925Z,21.20
2018-03-15T06:26:20.826Z,22.50
2018-03-15T06:27:20.764Z,23.40
2018-03-15T06:28:20.702Z,22.40
2018-03-15T06:29:20.643Z,21.80
2018-03-15T06:30:20.579Z,23.10
2018-03-15T06:31:20.526Z,21.30
2018-03-15T06:32:20.457Z,21.10
2018-03-15T06:33:20.396Z,21.90
2018-03-15T06:34:20.337Z,21.30
2018-03-15T06:35:20.275Z,21.50
2018-03-15T06:36:20.211Z,21.20
2018-03-15T06:37:20.151Z,21.70
2018-03-15T06:38:20.099Z,22.60
2018-03-15T06:39:20.031Z,21.50
2018-03-15T06:40:19.968Z,22.20
2018-03-15T06:41:19.908Z,22.20
2018-03-15T06:42:19.849Z,21.60
2018-03-15T06:43:19.786Z,20.70
2018-03-15T06:44:19.722Z,20.80
2018-03-15T06:45:19.664Z,21.20
2018-03-15T06:46:19.604Z,21.10
2018-03-15T06:47:19.545Z,21.90
2018-03-15T06:48:19.481Z,22.10
2018-03-15T06:49:19.420Z,21.70
2018-03-15T06:50:19.359Z,21.30
2018-03-15T06:51:19.297Z,20.60
2018-03-15T06:52:19.238Z,22.20
2018-03-15T06:53:19.176Z,21.40
2018-03-15T06:54:19.125Z,20.60
2018-03-15T06:55:19.054Z,21.80
2018-03-15T06:56:18.993Z,21.20
2018-03-15T06:57:18.932Z,21.40
2018-03-15T06:58:18.872Z,20.60
2018-03-15T06:59:18.812Z,20.30
2018-03-15T07:00:18.748Z,21.10
2018-03-15T07:01:18.687Z,20.70
2018-03-15T07:02:18.627Z,21.10
2018-03-15T07:03:18.569Z,21.00
2018-03-15T07:04:18.505Z,21.90
2018-03-15T07:05:18.449Z,21.90
2018-03-15T07:06:18.384Z,21.80
2018-03-15T07:07:18.325Z,21.30
2018-03-15T07:08:18.760Z,20.40
2018-03-15T07:09:18.203Z,20.40
2018-03-15T07:10:18.144Z,21.80
2018-03-15T07:11:18.080Z,21.10
2018-03-15T07:12:18.025Z,20.10
2018-03-15T07:13:17.957Z,21.70
2018-03-15T07:14:17.898Z,22.30
2018-03-15T07:15:17.838Z,21.90
2018-03-15T07:16:17.775Z,21.10
2018-03-15T07:17:17.715Z,22.10
2018-03-15T07:18:17.655Z,21.30
2018-03-15T07:19:17.606Z,20.30
2018-03-15T07:20:17.532Z,21.90
2018-03-15T07:21:17.471Z,21.80
2018-03-15T07:22:17.412Z,20.90
2018-03-15T07:23:17.354Z,21.10
2018-03-15T07:24:17.292Z,21.20
2018-03-15T07:25:17.232Z,21.60
2018-03-15T07:26:17.182Z,20.40
2018-03-15T07:27:17.110Z,20.70
2018-03-15T07:28:17.047Z,20.00
2018-03-15T07:29:16.989Z,20.30
2018-03-15T07:30:16.950Z,20.20
2018-03-15T07:31:16.867Z,20.50
2018-03-15T07:32:16.806Z,21.30
2018-03-15T07:33:16.745Z,20.30
2018-03-15T07:34:16.694Z,20.90
2018-03-15T07:35:16.624Z,19.70
2018-03-15T07:36:16.563Z,21.40
2018-03-15T07:37:16.501Z,20.50
2018-03-15T07:38:16.441Z,20.50
2018-03-15T07:39:16.420Z,20.20
2018-03-15T07:40:16.319Z,20.70
2018-03-15T07:41:16.260Z,20.80
2018-03-15T07:42:16.201Z,20.70
2018-03-15T07:43:16.141Z,20.00
2018-03-15T07:44:16.079Z,20.70
2018-03-15T07:45:16.018Z,20.00
2018-03-15T07:46:15.961Z,19.30
2018-03-15T07:47:15.897Z,19.90
2018-03-15T07:48:15.840Z,19.70
2018-03-15T07:49:15.778Z,19.40
2018-03-15T07:50:15.716Z,19.80
2018-03-15T07:51:15.655Z,19.10
2018-03-15T07:52:15.596Z,19.20
2018-03-15T07:53:15.535Z,19.40
2018-03-15T07:54:15.474Z,19.30
2018-03-15T07:55:15.419Z,19.50
2018-03-15T07:56:15.352Z,19.70
2018-03-15T07:57:15.292Z,19.30
2018-03-15T07:58:15.238Z,18.80
2018-03-15T07:59:15.175Z,19.40
2018-03-15T08:00:15.112Z,18.10
2018-03-15T08:01:15.054Z,18.70
2018-03-15T08:02:15.030Z,19.30
2018-03-15T08:03:14.932Z,19.30
2018-03-15T08:04:14.872Z,18.60
2018-03-15T08:05:14.813Z,18.40
2018-03-15T08:06:14.752Z,18.80
2018-03-15T08:07:14.703Z,18.90
2018-03-15T08:08:15.273Z,18.90
2018-03-15T08:09:14.571Z,18.10
2018-03-15T08:10:14.512Z,19.60
2018-03-15T08:11:14.452Z,18.90
2018-03-15T08:12:14.388Z,16.60
2018-03-15T08:13:14.333Z,17.60
2018-03-15T08:14:14.273Z,17.20
2018-03-15T08:15:14.216Z,18.40
2018-03-15T08:16:14.152Z,17.80
2018-03-15T08:17:14.091Z,17.80
2018-03-15T08:18:14.029Z,17.30
2018-03-15T08:19:13.970Z,17.90
2018-03-15T08:20:13.910Z,16.50
2018-03-15T08:21:13.853Z,18.10
2018-03-15T08:22:13.790Z,17.40
2018-03-15T08:23:13.731Z,16.70
2018-03-15T08:24:13.712Z,16.60
2018-03-15T08:25:14.283Z,16.90
2018-03-15T08:26:13.555Z,16.80
2018-03-15T08:27:13.492Z,16.60
2018-03-15T08:28:13.484Z,17.00
2018-03-15T08:29:13.373Z,17.40
2018-03-15T08:30:13.318Z,17.40
2018-03-15T08:31:13.253Z,16.80
2018-03-15T08:32:13.191Z,16.10
2018-03-15T08:33:13.135Z,16.30
2018-03-15T08:34:13.074Z,15.90
2018-03-15T08:35:13.016Z,16.40
2018-03-15T08:36:12.954Z,16.00
2018-03-15T08:37:12.895Z,16.50
2018-03-15T08:38:12.847Z,16.10
2018-03-15T08:39:12.837Z,16.90
2018-03-15T08:40:12.797Z,17.50
2018-03-15T08:41:12.662Z,17.80
2018-03-15T08:42:12.598Z,16.60
2018-03-15T08:43:12.545Z,16.60
2018-03-15T08:44:12.477Z,16.90
2018-03-15T08:45:12.419Z,17.10
2018-03-15T08:46:12.361Z,17.00
2018-03-15T08:47:12.299Z,16.90
2018-03-15T08:48:12.240Z,17.40
2018-03-15T08:49:12.180Z,16.70
2018-03-15T08:50:12.124Z,17.70
2018-03-15T08:51:12.060Z,17.80
2018-03-15T08:52:12.001Z,19.20
2018-03-15T08:53:11.947Z,16.70
2018-03-15T08:54:11.880Z,16.70
2018-03-15T08:55:11.822Z,16.50
2018-03-15T08:56:11.763Z,16.40
2018-03-15T08:57:12.285Z,17.00
2018-03-15T08:58:11.642Z,16.10
2018-03-15T08:59:11.587Z,16.10
2018-03-15T09:00:11.559Z,16.30
2018-03-15T09:01:11.465Z,15.60
2018-03-15T09:02:11.434Z,16.10
2018-03-15T09:03:11.347Z,15.50
2018-03-15T09:04:11.286Z,15.60
2018-03-15T09:05:11.229Z,16.30
2018-03-15T09:06:11.167Z,15.80
2018-03-15T09:07:11.110Z,15.40
2018-03-15T09:08:11.115Z,15.60
2018-03-15T09:09:10.990Z,14.80
2018-03-15T09:10:10.939Z,14.90
2018-03-15T09:11:10.873Z,14.10
2018-03-15T09:12:10.813Z,14.50
2018-03-15T09:13:10.754Z,15.50
2018-03-15T09:14:10.697Z,14.30
2018-03-15T09:15:10.637Z,14.10
2018-03-15T09:16:10.576Z,13.70
2018-03-15T09:17:10.518Z,13.90
2018-03-15T09:18:10.459Z,14.40
2018-03-15T09:19:10.402Z,15.20
2018-03-15T09:20:10.342Z,15.00
2018-03-15T09:21:10.282Z,14.70
2018-03-15T09:22:10.226Z,14.50
2018-03-15T09:23:10.184Z,15.20
2018-03-15T09:24:10.105Z,14.50
2018-03-15T09:25:10.047Z,15.10
2018-03-15T09:26:09.988Z,15.00
2018-03-15T09:27:09.932Z,14.80
2018-03-15T09:28:09.874Z,14.70
2018-03-15T09:29:09.811Z,15.30
2018-03-15T09:30:09.751Z,14.80
2018-03-15T09:31:09.693Z,14.60
2018-03-15T09:32:09.639Z,15.30
2018-03-15T09:33:09.576Z,15.20
2018-03-15T09:34:09.515Z,15.30
2018-03-15T09:35:09.459Z,14.50
2018-03-15T09:36:09.399Z,15.10
2018-03-15T09:37:09.340Z,14.80
2018-03-15T09:38:09.281Z,15.00
2018-03-15T09:39:09.223Z,15.00
2018-03-15T09:40:09.166Z,14.20
2018-03-15T09:41:09.104Z,15.00
2018-03-15T09:42:09.045Z,14.40
2018-03-15T09:43:08.987Z,14.90
2018-03-15T09:44:08.925Z,14.30
2018-03-15T09:45:08.867Z,14.60
2018-03-15T09:46:08.827Z,13.50
2018-03-15T09:47:08.750Z,14.70
2018-03-15T09:48:08.692Z,15.30
2018-03-15T09:49:08.629Z,13.70
2018-03-15T09:50:08.573Z,14.00
2018-03-15T09:51:08.513Z,14.10
2018-03-15T09:52:08.453Z,14.00
2018-03-15T09:53:08.393Z,14.10
2018-03-15T09:54:08.353Z,14.00
2018-03-15T09:55:08.276Z,14.60
2018-03-15T09:56:08.220Z,14.30
2018-03-15T09:57:08.155Z,14.40
2018-03-15T09:58:08.098Z,13.80
2018-03-15T09:59:08.048Z,13.60
2018-03-15T10:00:07.980Z,14.90
2018-03-15T10:01:07.917Z,14.40
2018-03-15T10:02:07.859Z,13.70
2018-03-15T10:03:07.800Z,14.10
2018-03-15T10:04:07.740Z,13.60
2018-03-15T10:05:07.680Z,14.40
2018-03-15T10:06:07.622Z,14.30
2018-03-15T10:07:07.561Z,14.20
2018-03-15T10:08:07.504Z,14.90
2018-03-15T10:09:07.444Z,14.40
2018-03-15T10:10:07.386Z,13.80
2018-03-15T10:11:07.329Z,13.90
2018-03-15T10:12:07.266Z,14.00
2018-03-15T10:13:07.207Z,14.90
2018-03-15T10:14:07.147Z,14.70
2018-03-15T10:15:07.088Z,13.90
2018-03-15T10:16:07.027Z,14.30
2018-03-15T10:17:06.968Z,13.50
2018-03-15T10:18:06.910Z,14.30
2018-03-15T10:19:06.850Z,13.50
2018-03-15T10:20:06.795Z,13.80
2018-03-15T10:21:06.732Z,14.00
2018-03-15T10:22:06.670Z,13.70
2018-03-15T10:23:06.610Z,14.50
2018-03-15T10:24:06.551Z,14.60
2018-03-15T10:25:13.766Z,14.90
2018-03-15T10:26:06.436Z,14.30
2018-03-15T10:27:06.376Z,15.20
2018-03-15T10:28:06.318Z,15.40
2018-03-15T10:29:06.254Z,15.20
2018-03-15T10:30:06.196Z,15.40
2018-03-15T10:31:06.136Z,15.20
2018-03-15T10:32:06.095Z,15.20
2018-03-15T10:33:06.018Z,15.20
2018-03-15T10:34:05.960Z,15.70
2018-03-15T10:35:05.942Z,15.30
2018-03-15T10:36:05.839Z,15.20
2018-03-15T10:37:05.781Z,15.60
2018-03-15T10:38:05.722Z,15.50
2018-03-15T10:39:05.664Z,15.00
2018-03-15T10:40:05.603Z,15.70
2018-03-15T10:41:05.543Z,15.10
2018-03-15T10:42:05.484Z,15.20
2018-03-15T10:43:05.425Z,15.60
2018-03-15T10:44:05.367Z,15.20
2018-03-15T10:45:05.306Z,15.20
2018-03-15T10:46:05.252Z,15.00
2018-03-15T10:47:05.189Z,15.80
2018-03-15T10:48:05.128Z,16.00
2018-03-15T10:49:05.070Z,15.10
2018-03-15T10:50:05.011Z,14.00
2018-03-15T10:51:04.951Z,15.30
2018-03-15T10:52:04.893Z,13.90
2018-03-15T10:53:04.834Z,13.90
2018-03-15T10:54:04.774Z,13.90
2018-03-15T10:55:04.717Z,13.80
2018-03-15T10:56:04.656Z,13.80
2018-03-15T10:57:04.598Z,14.10
2018-03-15T10:58:04.538Z,14.50
2018-03-15T10:59:04.478Z,13.60
2018-03-15T11:00:04.459Z,12.80
2018-03-15T11:01:04.362Z,12.50
2018-03-15T11:02:04.303Z,13.10
2018-03-15T11:03:04.243Z,13.00
2018-03-15T11:04:04.183Z,12.30
2018-03-15T11:05:04.124Z,12.20
2018-03-15T11:06:04.066Z,13.00
2018-03-15T11:07:04.007Z,12.20
2018-03-15T11:08:03.947Z,13.10
2018-03-15T11:09:03.887Z,13.00
2018-03-15T11:10:03.834Z,12.40
2018-03-15T11:11:03.773Z,12.70
2018-03-15T11:12:03.714Z,12.30
2018-03-15T11:13:03.653Z,13.20
2018-03-15T11:14:03.597Z,12.80
2018-03-15T11:15:03.537Z,12.50
2018-03-15T11:16:03.475Z,12.50
2018-03-15T11:17:03.418Z,12.70
2018-03-15T11:18:03.380Z,13.10
2018-03-15T11:19:03.300Z,12.50
2018-03-15T11:20:03.245Z,12.50
2018-03-15T11:21:03.180Z,13.00
2018-03-15T11:22:03.122Z,13.10
2018-03-15T11:23:03.064Z,13.60
2018-03-15T11:24:03.101Z,13.10
2018-03-15T11:25:02.945Z,14.00
2018-03-15T11:26:02.887Z,13.00
2018-03-15T11:27:02.829Z,13.20
2018-03-15T11:28:02.767Z,14.00
2018-03-15T11:29:02.713Z,13.20
2018-03-15T11:30:02.661Z,12.50
2018-03-15T11:31:02.592Z,12.80
2018-03-15T11:32:02.531Z,13.50
2018-03-15T11:33:02.475Z,13.40
2018-03-15T11:34:02.415Z,13.90
2018-03-15T11:35:02.356Z,12.90
2018-03-15T11:36:02.295Z,12.90
2018-03-15T11:37:02.239Z,13.50
2018-03-15T11:38:02.185Z,13.00
2018-03-15T11:39:02.119Z,13.30
2018-03-15T11:40:02.061Z,12.30
2018-03-15T11:41:02.002Z,12.00
2018-03-15T11:42:01.943Z,12.60
2018-03-15T11:43:01.886Z,13.20
2018-03-15T11:44:01.828Z,13.30
2018-03-15T11:45:01.769Z,13.60
2018-03-15T11:46:01.708Z,13.10
2018-03-15T11:47:01.650Z,12.80
2018-03-15T11:48:01.591Z,13.10
2018-03-15T11:49:01.546Z,13.60
2018-03-15T11:50:01.476Z,13.40
2018-03-15T11:51:01.416Z,12.60
2018-03-15T11:52:01.357Z,13.60
2018-03-15T11:53:01.300Z,13.20
2018-03-15T11:54:01.243Z,13.20
2018-03-15T11:55:01.187Z,13.00
2018-03-15T11:56:01.129Z,12.30
2018-03-15T11:57:01.070Z,12.90
2018-03-15T11:58:01.010Z,12.40
2018-03-15T11:59:00.951Z,12.80
2018-03-15T12:00:00.894Z,13.00
